Terminal Aerodrome Forecast
Issued by NWS Wichita, KS

Home | Current Version | Previous Version | Text Only | Print | Product List | Glossary On
Versions: 1 2 3 4 5 6 7 8 9 10 11 12 13 14 15 16 17
000
FTUS43 KICT 251131
TAFICT
TAF
KICT 251131Z 2512/2612 33013KT P6SM VCSH OVC008
      TEMPO 2512/2514 6SM -RA BR SCT008 OVC025
     FM251700 34014KT P6SM VCSH OVC015
     FM252000 34012KT P6SM OVC020
     FM260000 35010KT P6SM BKN040
     FM260300 35006KT P6SM SCT120
     FM261100 VRB04KT 4SM BR SKC=

USA.gov is the U.S. government's official web portal to all federal, state and local government web resources and services.